createdAt,value
2023-01-31T00:01:38.840Z,2.70
2023-01-31T00:04:09.039Z,2.70
2023-01-31T00:06:39.589Z,2.80
2023-01-31T00:09:10.712Z,2.70
2023-01-31T00:11:38.610Z,2.60
2023-01-31T00:14:07.687Z,2.50
2023-01-31T00:16:36.076Z,2.50
2023-01-31T00:19:04.140Z,2.50
2023-01-31T00:21:32.853Z,2.40
2023-01-31T00:24:01.454Z,2.30
2023-01-31T00:26:32.200Z,2.30
2023-01-31T00:29:03.069Z,2.30
2023-01-31T00:31:32.878Z,2.30
2023-01-31T00:34:01.144Z,2.30
2023-01-31T00:36:30.733Z,2.20
2023-01-31T00:39:00.302Z,2.10
2023-01-31T00:41:30.690Z,2.00
2023-01-31T00:43:59.230Z,1.80
2023-01-31T00:46:27.682Z,1.70
2023-01-31T00:48:56.591Z,1.60
2023-01-31T00:51:26.723Z,1.30
2023-01-31T00:53:55.515Z,1.40
2023-01-31T00:56:25.657Z,1.20
2023-01-31T00:58:55.674Z,1.20
2023-01-31T01:01:26.198Z,1.20
2023-01-31T01:03:54.920Z,1.20
2023-01-31T01:06:23.683Z,1.00
2023-01-31T01:11:23.664Z,0.80
2023-01-31T01:13:52.005Z,1.00
2023-01-31T01:16:23.161Z,1.00
2023-01-31T01:18:51.378Z,0.90
2023-01-31T01:21:21.863Z,0.90
2023-01-31T01:23:50.285Z,0.90
2023-01-31T01:26:20.315Z,1.00
2023-01-31T01:28:48.647Z,0.90
2023-01-31T01:31:17.858Z,0.70
2023-01-31T01:33:48.990Z,0.70
2023-01-31T01:36:22.021Z,0.70
2023-01-31T01:38:50.444Z,0.60
2023-01-31T01:41:19.154Z,0.50
2023-01-31T01:43:48.775Z,0.40
2023-01-31T01:46:21.096Z,0.40
2023-01-31T01:48:54.401Z,0.60
2023-01-31T01:51:23.031Z,0.80
2023-01-31T01:53:56.128Z,0.70
2023-01-31T01:56:27.694Z,0.60
2023-01-31T01:59:00.217Z,0.60
2023-01-31T02:01:32.887Z,0.50
2023-01-31T02:04:02.984Z,0.40
2023-01-31T02:06:30.843Z,0.40
2023-01-31T02:08:59.963Z,0.60
2023-01-31T02:11:30.797Z,0.70
2023-01-31T02:14:03.060Z,0.80
2023-01-31T02:16:31.188Z,0.60
2023-01-31T02:18:59.929Z,0.40
2023-01-31T02:22:01.180Z,0.40
2023-01-31T02:25:13.229Z,0.50
2023-01-31T02:28:14.270Z,0.30
2023-01-31T02:31:24.467Z,0.40
2023-01-31T02:34:00.777Z,0.20
2023-01-31T02:36:42.765Z,0.20
2023-01-31T02:39:21.902Z,0.30
2023-01-31T02:41:58.046Z,0.30
2023-01-31T02:44:49.835Z,0.30
2023-01-31T02:47:29.145Z,0.30
2023-01-31T02:50:04.547Z,0.40
2023-01-31T02:52:37.705Z,0.20
2023-01-31T02:55:30.517Z,0.00
2023-01-31T02:58:00.657Z,-0.20
2023-01-31T03:00:30.571Z,-0.30
2023-01-31T03:02:58.361Z,-0.40
2023-01-31T03:05:27.631Z,-0.40
2023-01-31T03:07:59.723Z,-0.50
2023-01-31T03:10:52.613Z,-0.40
2023-01-31T03:13:33.879Z,-0.20
2023-01-31T03:16:28.951Z,-0.40
2023-01-31T03:19:02.928Z,-0.60
2023-01-31T03:21:37.441Z,-0.60
2023-01-31T03:24:07.055Z,-0.50
2023-01-31T03:26:36.752Z,-0.60
2023-01-31T03:29:07.032Z,-0.70
2023-01-31T03:31:40.086Z,-0.80
2023-01-31T03:39:17.735Z,-0.90
2023-01-31T03:54:32.942Z,-0.50
2023-01-31T03:57:06.508Z,-0.40
2023-01-31T03:59:41.697Z,-0.50
2023-01-31T04:02:12.896Z,-0.50
2023-01-31T04:04:43.754Z,-0.60
2023-01-31T04:07:13.379Z,-0.60
2023-01-31T04:09:41.383Z,-0.70
2023-01-31T04:12:12.722Z,-0.80
2023-01-31T04:14:40.627Z,-0.90
2023-01-31T04:17:08.411Z,-1.10
2023-01-31T04:19:36.776Z,-1.10
2023-01-31T04:22:04.639Z,-1.00
2023-01-31T04:24:33.964Z,-0.90
2023-01-31T04:27:01.897Z,-0.90
2023-01-31T04:29:29.753Z,-1.00
2023-01-31T04:31:57.672Z,-1.10
2023-01-31T04:34:25.761Z,-1.20
2023-01-31T04:36:53.548Z,-1.20
2023-01-31T04:39:21.367Z,-1.20
2023-01-31T04:41:50.561Z,-1.20
2023-01-31T04:44:18.417Z,-1.10
2023-01-31T04:46:47.016Z,-0.70
2023-01-31T04:49:15.331Z,-0.50
2023-01-31T04:51:43.233Z,-0.40
2023-01-31T04:54:11.252Z,-0.50
2023-01-31T04:56:39.025Z,-0.60
2023-01-31T04:59:08.753Z,-0.80
2023-01-31T05:01:36.678Z,-0.60
2023-01-31T05:04:04.740Z,-0.50
2023-01-31T05:06:32.811Z,-0.70
2023-01-31T05:09:01.495Z,-0.70
2023-01-31T05:11:29.638Z,-0.80
2023-01-31T05:13:57.492Z,-0.80
2023-01-31T05:16:26.700Z,-0.80
2023-01-31T05:18:54.673Z,-0.80
2023-01-31T05:21:22.588Z,-0.90
2023-01-31T05:23:50.429Z,-0.90
2023-01-31T05:26:18.240Z,-0.90
2023-01-31T05:28:46.076Z,-0.90
2023-01-31T05:31:14.252Z,-0.70
2023-01-31T05:33:43.469Z,-0.70
2023-01-31T05:36:11.351Z,-0.70
2023-01-31T05:38:39.153Z,-0.70
2023-01-31T05:41:06.976Z,-0.80
2023-01-31T05:43:36.364Z,-0.80
2023-01-31T05:46:05.015Z,-0.80
2023-01-31T05:48:33.536Z,-0.90
2023-01-31T05:51:03.248Z,-0.90
2023-01-31T05:53:31.229Z,-0.90
2023-01-31T05:55:59.055Z,-1.00
2023-01-31T05:58:26.945Z,-1.00
2023-01-31T06:00:56.556Z,-1.10
2023-01-31T06:03:24.433Z,-1.20
2023-01-31T06:05:52.280Z,-1.20
2023-01-31T06:08:21.393Z,-1.40
2023-01-31T06:10:49.223Z,-1.50
2023-01-31T06:13:17.052Z,-1.40
2023-01-31T06:15:45.209Z,-1.30
2023-01-31T06:18:13.273Z,-1.40
2023-01-31T06:20:41.136Z,-1.50
2023-01-31T06:23:08.957Z,-1.60
2023-01-31T06:25:38.106Z,-1.70
2023-01-31T06:28:06.225Z,-1.80
2023-01-31T06:30:34.855Z,-1.70
2023-01-31T06:33:03.157Z,-1.60
2023-01-31T06:35:31.706Z,-1.70
2023-01-31T06:37:59.558Z,-1.80
2023-01-31T06:40:27.506Z,-1.80
2023-01-31T06:42:56.638Z,-1.80
2023-01-31T06:45:24.446Z,-1.70
2023-01-31T06:47:52.266Z,-1.50
2023-01-31T06:50:20.206Z,-1.30
2023-01-31T06:52:48.001Z,-1.20
2023-01-31T06:55:15.971Z,-1.20
2023-01-31T06:57:50.248Z,-1.30
2023-01-31T07:00:21.594Z,-1.30
2023-01-31T07:02:49.849Z,-1.30
2023-01-31T07:05:18.160Z,-1.40
2023-01-31T07:07:46.306Z,-1.20
2023-01-31T07:10:14.630Z,-1.10
2023-01-31T07:12:42.507Z,-1.10
2023-01-31T07:15:11.403Z,-0.80
2023-01-31T07:17:40.617Z,-0.80
2023-01-31T07:20:09.804Z,-1.10
2023-01-31T07:22:37.619Z,-1.20
2023-01-31T07:25:06.150Z,-1.30
2023-01-31T07:27:33.907Z,-1.20
2023-01-31T07:30:01.705Z,-1.10
2023-01-31T07:32:32.551Z,-1.20
2023-01-31T07:35:01.676Z,-1.30
2023-01-31T07:37:29.879Z,-1.30
2023-01-31T07:39:57.809Z,-1.10
2023-01-31T07:42:25.655Z,-1.10
2023-01-31T07:44:53.471Z,-1.10
2023-01-31T07:47:21.267Z,-1.20
2023-01-31T07:49:50.521Z,-1.30
2023-01-31T07:52:19.690Z,-1.40
2023-01-31T07:54:47.833Z,-1.30
2023-01-31T07:57:17.593Z,-1.10
2023-01-31T07:59:45.638Z,-1.20
2023-01-31T08:02:31.943Z,-1.30
2023-01-31T08:04:59.843Z,-1.10
2023-01-31T08:07:30.049Z,-0.90
2023-01-31T08:09:58.435Z,-0.90
2023-01-31T08:12:26.262Z,-1.00
2023-01-31T08:14:54.121Z,-1.10
2023-01-31T08:17:21.949Z,-1.00
2023-01-31T08:19:49.737Z,-0.80
2023-01-31T08:22:17.548Z,-0.70
2023-01-31T08:24:46.835Z,-0.70
2023-01-31T08:27:14.627Z,-0.80
2023-01-31T08:29:42.390Z,-0.70
2023-01-31T08:32:10.200Z,-0.70
2023-01-31T08:34:38.040Z,-0.60
2023-01-31T08:37:05.864Z,-0.60
2023-01-31T08:39:33.814Z,-0.60
2023-01-31T08:42:02.911Z,-0.50
2023-01-31T08:44:30.675Z,-0.40
2023-01-31T08:47:00.668Z,-0.40
2023-01-31T08:49:29.171Z,-0.30
2023-01-31T08:51:56.978Z,-0.30
2023-01-31T08:54:24.772Z,-0.20
2023-01-31T08:56:52.530Z,0.00
2023-01-31T08:59:21.684Z,0.30
2023-01-31T09:01:49.583Z,0.40
2023-01-31T09:04:17.431Z,0.60
2023-01-31T09:06:45.200Z,0.70
2023-01-31T09:09:13.018Z,0.90
2023-01-31T09:11:40.808Z,1.00
2023-01-31T09:14:08.624Z,1.20
2023-01-31T09:16:39.012Z,1.40
2023-01-31T09:19:07.061Z,1.60
2023-01-31T09:21:34.892Z,1.70
2023-01-31T09:24:03.765Z,1.90
2023-01-31T09:26:32.235Z,2.00
2023-01-31T09:29:01.479Z,2.20
2023-01-31T09:31:30.182Z,2.20
2023-01-31T09:33:59.484Z,2.30
2023-01-31T09:36:27.813Z,2.50
2023-01-31T09:38:57.035Z,2.80
2023-01-31T09:41:31.281Z,3.30
2023-01-31T09:44:02.764Z,4.00
2023-01-31T09:46:36.828Z,4.70
2023-01-31T09:49:11.092Z,4.90
2023-01-31T09:51:40.617Z,5.00
2023-01-31T09:54:19.270Z,5.20
2023-01-31T09:56:55.409Z,5.40
2023-01-31T09:59:26.286Z,5.70
2023-01-31T10:02:00.578Z,6.30
2023-01-31T10:04:43.044Z,6.70
2023-01-31T10:07:17.245Z,7.20
2023-01-31T10:09:50.667Z,7.40
2023-01-31T10:12:22.029Z,7.80
2023-01-31T10:14:53.729Z,8.20
2023-01-31T10:17:27.019Z,8.30
2023-01-31T10:20:00.098Z,8.20
2023-01-31T10:22:35.276Z,8.50
2023-01-31T10:25:13.642Z,8.10
2023-01-31T10:27:45.791Z,8.40
2023-01-31T10:30:19.075Z,8.60
2023-01-31T10:32:51.818Z,9.00
2023-01-31T10:35:25.180Z,8.60
2023-01-31T10:37:58.949Z,8.60
2023-01-31T10:40:33.656Z,8.40
2023-01-31T10:43:12.308Z,8.40
2023-01-31T10:45:40.626Z,8.50
2023-01-31T10:48:16.633Z,8.20
2023-01-31T10:50:55.598Z,8.10
2023-01-31T10:53:46.205Z,8.10
2023-01-31T10:56:20.555Z,8.20
2023-01-31T10:58:49.273Z,8.40
2023-01-31T11:01:17.208Z,8.30
2023-01-31T11:03:50.327Z,8.20
2023-01-31T11:06:20.183Z,7.90
2023-01-31T11:08:50.426Z,7.90
2023-01-31T11:11:20.223Z,8.40
2023-01-31T11:13:58.412Z,9.10
2023-01-31T11:16:28.131Z,9.60
2023-01-31T11:18:56.188Z,10.10
2023-01-31T11:21:28.085Z,10.30
2023-01-31T11:24:01.827Z,10.80
2023-01-31T11:26:33.114Z,11.30
2023-01-31T11:29:02.315Z,11.30
2023-01-31T11:31:41.482Z,11.40
2023-01-31T11:34:21.759Z,11.60
2023-01-31T11:36:51.827Z,11.40
2023-01-31T11:39:27.298Z,11.70
2023-01-31T11:41:55.287Z,12.10
2023-01-31T11:44:24.419Z,11.90
2023-01-31T11:46:56.370Z,11.60
2023-01-31T11:49:30.383Z,11.00
2023-01-31T11:52:02.273Z,10.80
2023-01-31T11:54:34.352Z,10.60
2023-01-31T11:57:02.987Z,10.40
2023-01-31T11:59:32.460Z,10.10
2023-01-31T12:02:02.128Z,10.00
2023-01-31T12:04:35.610Z,9.90
2023-01-31T12:07:06.963Z,9.90
2023-01-31T12:09:45.622Z,9.60
2023-01-31T12:12:25.205Z,9.80
2023-01-31T12:14:56.088Z,10.10
2023-01-31T12:17:24.109Z,10.10
2023-01-31T12:20:26.278Z,9.90
2023-01-31T12:23:05.249Z,9.40
2023-01-31T12:25:48.800Z,9.10
2023-01-31T12:28:27.725Z,8.90
2023-01-31T12:31:19.742Z,8.70
2023-01-31T12:34:00.030Z,8.60
2023-01-31T12:36:43.748Z,8.30
2023-01-31T12:42:12.331Z,7.90
2023-01-31T12:44:46.307Z,7.80
2023-01-31T12:47:46.523Z,7.60
2023-01-31T12:50:25.332Z,7.50
2023-01-31T12:53:13.247Z,7.40
2023-01-31T12:55:50.554Z,7.50
2023-01-31T12:58:36.069Z,7.60
2023-01-31T13:01:08.663Z,7.70
2023-01-31T13:03:50.554Z,7.80
2023-01-31T13:06:23.135Z,7.70
2023-01-31T13:09:07.160Z,7.80
2023-01-31T13:11:41.792Z,7.80
2023-01-31T13:14:16.552Z,7.50
2023-01-31T13:16:46.398Z,7.40
2023-01-31T13:19:18.452Z,7.30
2023-01-31T13:21:49.789Z,7.40
2023-01-31T13:24:21.653Z,7.30
2023-01-31T13:26:56.968Z,7.30
2023-01-31T13:29:29.861Z,7.20
2023-01-31T13:32:02.447Z,7.20
2023-01-31T13:34:35.726Z,7.20
2023-01-31T13:37:06.948Z,7.30
2023-01-31T13:39:40.093Z,7.20
2023-01-31T13:42:14.643Z,7.20
2023-01-31T13:44:42.651Z,7.00
2023-01-31T13:47:17.627Z,7.10
2023-01-31T13:49:50.378Z,7.00
2023-01-31T13:52:24.447Z,7.00
2023-01-31T13:54:57.618Z,7.00
2023-01-31T13:57:30.006Z,7.00
2023-01-31T14:00:04.872Z,7.00
2023-01-31T14:02:32.863Z,7.00
2023-01-31T14:05:07.903Z,7.00
2023-01-31T14:07:35.874Z,7.00
2023-01-31T14:10:28.373Z,7.00
2023-01-31T14:13:29.426Z,7.00
2023-01-31T14:15:59.427Z,7.00
2023-01-31T14:18:43.804Z,7.10
2023-01-31T14:21:54.650Z,7.20
2023-01-31T14:25:04.497Z,7.10
2023-01-31T14:27:39.806Z,7.20
2023-01-31T14:30:23.292Z,7.20
2023-01-31T14:33:03.743Z,7.00
2023-01-31T14:35:51.264Z,7.00
2023-01-31T14:38:31.357Z,7.00
2023-01-31T14:41:08.611Z,7.00
2023-01-31T14:43:50.623Z,6.90
2023-01-31T14:46:41.184Z,7.00
2023-01-31T14:49:29.948Z,7.00
2023-01-31T14:52:19.226Z,6.90
2023-01-31T14:55:04.474Z,6.80
2023-01-31T14:57:34.542Z,6.70
2023-01-31T15:00:07.186Z,6.70
2023-01-31T15:02:55.301Z,6.60
2023-01-31T15:05:39.130Z,6.50
2023-01-31T15:08:30.156Z,6.40
2023-01-31T15:11:02.264Z,6.30
2023-01-31T15:13:39.353Z,6.30
2023-01-31T15:18:39.257Z,6.10
2023-01-31T15:21:09.415Z,6.10
2023-01-31T15:23:42.881Z,6.10
2023-01-31T15:26:11.517Z,6.00
2023-01-31T15:28:44.301Z,6.00
2023-01-31T15:31:19.914Z,6.00
2023-01-31T15:33:52.748Z,6.10
2023-01-31T15:36:27.644Z,6.00
2023-01-31T15:38:57.101Z,6.00
2023-01-31T15:41:27.183Z,6.10
2023-01-31T15:43:56.943Z,6.20
2023-01-31T15:46:30.550Z,6.10
2023-01-31T15:48:58.954Z,6.00
2023-01-31T15:51:26.862Z,6.00
2023-01-31T15:54:05.796Z,6.10
2023-01-31T15:56:36.430Z,6.00
2023-01-31T15:59:11.234Z,6.10
2023-01-31T16:01:40.659Z,6.10
2023-01-31T16:04:08.466Z,5.90
2023-01-31T16:06:39.113Z,5.90
2023-01-31T16:09:10.613Z,5.80
2023-01-31T16:11:38.611Z,5.80
2023-01-31T16:14:08.499Z,5.80
2023-01-31T16:16:36.994Z,5.90
2023-01-31T16:19:07.059Z,5.90
2023-01-31T16:21:38.544Z,5.80
2023-01-31T16:24:16.062Z,5.70
2023-01-31T16:26:58.329Z,5.60
2023-01-31T16:29:38.520Z,5.70
2023-01-31T16:32:16.820Z,5.70
2023-01-31T16:34:52.045Z,5.60
2023-01-31T16:37:31.532Z,5.60
2023-01-31T16:40:02.718Z,5.60
2023-01-31T16:42:33.262Z,5.70
2023-01-31T16:45:01.123Z,5.70
2023-01-31T16:47:34.918Z,5.80
2023-01-31T16:50:42.377Z,5.80
2023-01-31T16:53:31.285Z,5.80
2023-01-31T16:56:20.758Z,5.80
2023-01-31T16:58:52.301Z,5.90
2023-01-31T17:01:23.328Z,5.90
2023-01-31T17:04:16.339Z,5.90
2023-01-31T17:06:49.443Z,5.90
2023-01-31T17:09:21.775Z,5.70
2023-01-31T17:11:49.737Z,5.70
2023-01-31T17:14:17.535Z,5.70
2023-01-31T17:16:46.947Z,5.80
2023-01-31T17:19:16.076Z,5.80
2023-01-31T17:21:45.929Z,5.70
2023-01-31T17:24:15.531Z,5.60
2023-01-31T17:26:43.478Z,5.70
2023-01-31T17:29:11.581Z,5.80
2023-01-31T17:31:39.703Z,5.80
2023-01-31T17:34:13.561Z,5.70
2023-01-31T17:36:41.344Z,5.80
2023-01-31T17:39:10.449Z,5.90
2023-01-31T17:41:41.072Z,6.00
2023-01-31T17:44:10.245Z,5.90
2023-01-31T17:46:38.108Z,5.90
2023-01-31T17:49:05.890Z,5.90
2023-01-31T17:51:34.783Z,5.90
2023-01-31T17:54:02.704Z,5.80
2023-01-31T17:56:31.891Z,5.90
2023-01-31T17:58:59.673Z,5.80
2023-01-31T18:01:27.534Z,5.70
2023-01-31T18:03:55.333Z,5.70
2023-01-31T18:06:23.107Z,5.70
2023-01-31T18:08:52.415Z,5.70
2023-01-31T18:11:21.049Z,5.60
2023-01-31T18:13:50.192Z,5.60
2023-01-31T18:16:20.768Z,5.60
2023-01-31T18:18:48.916Z,5.70
2023-01-31T18:21:18.581Z,5.60
2023-01-31T18:23:51.048Z,5.60
2023-01-31T18:26:19.101Z,5.60
2023-01-31T18:28:47.425Z,5.50
2023-01-31T18:31:17.780Z,5.50
2023-01-31T18:33:47.579Z,5.60
2023-01-31T18:36:17.397Z,5.70
2023-01-31T18:38:47.149Z,5.70
2023-01-31T18:41:16.748Z,5.70
2023-01-31T18:43:44.990Z,5.70
2023-01-31T18:46:12.947Z,5.70
2023-01-31T18:48:42.264Z,5.60
2023-01-31T18:51:12.669Z,5.60
2023-01-31T18:53:42.132Z,5.60
2023-01-31T18:56:13.799Z,5.70
2023-01-31T18:58:44.539Z,5.70
2023-01-31T19:01:14.119Z,5.70
2023-01-31T19:03:44.308Z,5.70
2023-01-31T19:06:14.706Z,5.70
2023-01-31T19:08:43.542Z,5.70
2023-01-31T19:11:13.842Z,5.80
2023-01-31T19:13:42.552Z,5.80
2023-01-31T19:16:12.934Z,5.80
2023-01-31T19:18:41.549Z,5.70
2023-01-31T19:21:18.446Z,5.70
2023-01-31T19:23:47.265Z,5.70
2023-01-31T19:26:17.074Z,5.60
2023-01-31T19:28:45.749Z,5.60
2023-01-31T19:31:15.886Z,5.60
2023-01-31T19:33:48.279Z,5.60
2023-01-31T19:36:18.905Z,5.60
2023-01-31T19:38:46.712Z,5.60
2023-01-31T19:41:16.987Z,5.60
2023-01-31T19:43:44.767Z,5.60
2023-01-31T19:46:12.774Z,5.60
2023-01-31T19:48:40.586Z,5.60
2023-01-31T19:51:09.770Z,5.60
2023-01-31T19:53:39.123Z,5.60
2023-01-31T19:56:08.038Z,5.60
2023-01-31T19:58:35.828Z,5.60
2023-01-31T20:01:05.669Z,5.60
2023-01-31T20:03:34.053Z,5.50
2023-01-31T20:06:03.355Z,5.60
2023-01-31T20:08:31.803Z,5.50
2023-01-31T20:11:01.090Z,5.50
2023-01-31T20:13:28.895Z,5.50
2023-01-31T20:16:00.010Z,5.50
2023-01-31T20:18:28.392Z,5.50
2023-01-31T20:20:56.273Z,5.50
2023-01-31T20:23:24.312Z,5.50
2023-01-31T20:25:53.590Z,5.50
2023-01-31T20:28:23.281Z,5.60
2023-01-31T20:30:51.234Z,5.60
2023-01-31T20:33:19.554Z,5.60
2023-01-31T20:35:47.749Z,5.60
2023-01-31T20:38:17.209Z,5.60
2023-01-31T20:40:51.093Z,5.70
2023-01-31T20:43:19.187Z,5.60
2023-01-31T20:45:48.664Z,5.60
2023-01-31T20:48:16.786Z,5.50
2023-01-31T20:50:44.850Z,5.60
2023-01-31T20:53:19.256Z,5.70
2023-01-31T20:55:47.303Z,5.60
2023-01-31T20:58:15.087Z,5.70
2023-01-31T21:00:42.855Z,5.60
2023-01-31T21:03:11.981Z,5.60
2023-01-31T21:05:39.765Z,5.60
2023-01-31T21:08:07.631Z,5.60
2023-01-31T21:10:35.447Z,5.60
2023-01-31T21:13:03.224Z,5.70
2023-01-31T21:15:31.176Z,5.50
2023-01-31T21:17:59.002Z,5.50
2023-01-31T21:20:28.159Z,5.50
2023-01-31T21:22:55.951Z,5.50
2023-01-31T21:25:23.782Z,5.60
2023-01-31T21:27:51.637Z,5.50
2023-01-31T21:30:19.952Z,5.50
2023-01-31T21:32:47.862Z,5.60
2023-01-31T21:35:15.824Z,5.50
2023-01-31T21:37:44.978Z,5.50
2023-01-31T21:40:13.787Z,5.40
2023-01-31T21:42:42.964Z,5.40
2023-01-31T21:45:11.892Z,5.50
2023-01-31T21:47:59.654Z,5.40
2023-01-31T21:50:27.570Z,5.40
2023-01-31T21:52:56.704Z,5.40
2023-01-31T21:55:24.476Z,5.40
2023-01-31T21:57:52.259Z,5.50
2023-01-31T22:00:21.112Z,5.50
2023-01-31T22:02:52.898Z,5.60
2023-01-31T22:05:20.728Z,5.50
2023-01-31T22:07:48.544Z,5.50
2023-01-31T22:10:18.318Z,5.40
2023-01-31T22:12:46.083Z,5.60
2023-01-31T22:15:14.168Z,5.60
2023-01-31T22:17:42.003Z,5.60
2023-01-31T22:20:11.876Z,5.50
2023-01-31T22:22:39.648Z,5.50
2023-01-31T22:25:08.100Z,5.50
2023-01-31T22:27:37.250Z,5.50
2023-01-31T22:30:15.685Z,5.60
2023-01-31T22:32:44.403Z,5.60
2023-01-31T22:35:12.206Z,5.50
2023-01-31T22:37:39.979Z,5.50
2023-01-31T22:40:08.360Z,5.50
2023-01-31T22:42:37.501Z,5.60
2023-01-31T22:45:07.125Z,5.60
2023-01-31T22:47:34.962Z,5.60
2023-01-31T22:50:02.808Z,5.60
2023-01-31T22:52:30.666Z,5.50
2023-01-31T22:54:58.423Z,5.60
2023-01-31T22:57:27.556Z,5.60
2023-01-31T22:59:56.658Z,5.60
2023-01-31T23:02:24.527Z,5.50
2023-01-31T23:04:52.924Z,5.60
2023-01-31T23:07:20.774Z,5.60
2023-01-31T23:09:48.858Z,5.60
2023-01-31T23:12:16.711Z,5.50
2023-01-31T23:14:44.555Z,5.70
2023-01-31T23:17:31.438Z,5.70
2023-01-31T23:19:59.208Z,5.60
2023-01-31T23:22:27.047Z,5.60
2023-01-31T23:27:22.983Z,5.50
2023-01-31T23:29:50.747Z,5.60
2023-01-31T23:32:20.210Z,5.60
2023-01-31T23:34:48.069Z,5.60
2023-01-31T23:37:16.006Z,5.60
2023-01-31T23:39:44.131Z,5.60
2023-01-31T23:42:11.967Z,5.60
2023-01-31T23:44:39.756Z,5.70
2023-01-31T23:47:07.712Z,5.70
2023-01-31T23:49:37.074Z,5.60
2023-01-31T23:52:05.127Z,5.70
2023-01-31T23:54:32.887Z,5.60
2023-01-31T23:57:00.704Z,5.60
2023-01-31T23:59:29.287Z,5.60
